createdAt,value
2023-03-31T00:03:51.247Z,10.73
2023-03-31T00:08:54.823Z,11.13
2023-03-31T00:13:58.034Z,11.63
2023-03-31T00:19:02.491Z,11.27
2023-03-31T00:24:07.292Z,11.33
2023-03-31T00:29:13.403Z,11.30
2023-03-31T00:34:16.651Z,12.70
2023-03-31T00:39:20.467Z,10.97
2023-03-31T00:44:29.660Z,11.17
2023-03-31T00:49:41.048Z,10.70
2023-03-31T00:54:48.222Z,10.83
2023-03-31T00:59:56.509Z,10.90
2023-03-31T01:05:02.656Z,11.83
2023-03-31T01:10:07.771Z,12.47
2023-03-31T01:15:11.278Z,13.40
2023-03-31T01:20:58.588Z,12.73
2023-03-31T01:26:22.997Z,12.77
2023-03-31T01:32:01.779Z,13.77
2023-03-31T01:37:33.566Z,13.47
2023-03-31T01:42:59.881Z,13.93
2023-03-31T01:48:13.588Z,13.73
2023-03-31T01:53:35.596Z,14.93
2023-03-31T01:58:56.580Z,14.10
2023-03-31T02:04:08.068Z,15.77
2023-03-31T02:09:16.860Z,15.47
2023-03-31T02:14:25.118Z,16.17
2023-03-31T02:19:37.201Z,16.13
2023-03-31T02:24:42.561Z,16.60
2023-03-31T02:29:46.268Z,15.77
2023-03-31T02:34:49.970Z,15.77
2023-03-31T02:39:56.260Z,13.70
2023-03-31T02:45:04.793Z,14.73
2023-03-31T02:50:09.054Z,14.47
2023-03-31T02:55:19.131Z,15.30
2023-03-31T03:00:50.133Z,13.97
2023-03-31T03:06:05.240Z,12.40
2023-03-31T03:11:22.191Z,12.40
2023-03-31T03:16:33.319Z,10.83
2023-03-31T03:21:36.762Z,11.80
2023-03-31T03:26:40.762Z,8.47
2023-03-31T03:31:44.274Z,8.23
2023-03-31T03:36:47.870Z,8.57
2023-03-31T03:41:51.149Z,8.80
2023-03-31T03:46:54.912Z,8.00
2023-03-31T03:51:58.135Z,7.50
2023-03-31T03:57:01.431Z,7.27
2023-03-31T04:02:05.022Z,7.27
2023-03-31T04:07:08.482Z,6.33
2023-03-31T04:12:11.854Z,7.03
2023-03-31T04:17:16.275Z,5.90
2023-03-31T04:22:21.093Z,6.13
2023-03-31T04:27:27.642Z,6.23
2023-03-31T04:32:33.343Z,7.23
2023-03-31T04:37:39.373Z,6.93
2023-03-31T04:42:43.321Z,6.80
2023-03-31T04:47:46.581Z,6.97
2023-03-31T04:52:49.793Z,6.80
2023-03-31T04:57:53.232Z,6.93
2023-03-31T05:02:57.448Z,7.77
2023-03-31T05:08:00.911Z,7.47
2023-03-31T05:13:04.470Z,7.60
2023-03-31T05:18:08.568Z,7.57
2023-03-31T05:23:12.001Z,7.47
2023-03-31T05:28:15.534Z,8.40
2023-03-31T05:33:19.167Z,7.67
2023-03-31T05:38:23.061Z,7.97
2023-03-31T05:43:26.605Z,8.23
2023-03-31T05:48:29.812Z,7.93
2023-03-31T05:53:35.100Z,7.57
2023-03-31T05:58:39.189Z,8.07
2023-03-31T06:03:42.885Z,8.53
2023-03-31T06:08:47.717Z,8.60
2023-03-31T06:13:51.343Z,7.53
2023-03-31T06:18:56.199Z,7.20
2023-03-31T06:24:00.823Z,7.53
2023-03-31T06:29:04.337Z,7.33
2023-03-31T06:34:07.914Z,7.37
2023-03-31T06:39:11.492Z,7.40
2023-03-31T06:44:17.079Z,7.77
2023-03-31T06:49:20.354Z,7.50
2023-03-31T06:54:23.626Z,7.47
2023-03-31T06:59:27.147Z,7.07
2023-03-31T07:04:30.832Z,6.90
2023-03-31T07:09:34.108Z,5.80
2023-03-31T07:14:37.783Z,7.20
2023-03-31T07:19:42.577Z,7.37
2023-03-31T07:24:45.632Z,6.60
2023-03-31T07:29:48.801Z,7.07
2023-03-31T07:34:51.958Z,7.27
2023-03-31T07:39:55.262Z,7.00
2023-03-31T07:44:58.618Z,6.97
2023-03-31T07:50:02.363Z,6.70
2023-03-31T07:55:06.650Z,6.60
2023-03-31T08:00:12.861Z,6.17
2023-03-31T08:05:18.767Z,6.60
2023-03-31T08:10:25.625Z,6.37
2023-03-31T08:15:29.312Z,6.30
2023-03-31T08:20:33.362Z,5.97
2023-03-31T08:25:36.627Z,5.60
2023-03-31T08:30:40.235Z,5.77
2023-03-31T08:35:44.208Z,5.53
2023-03-31T08:40:47.509Z,5.67
2023-03-31T08:45:56.094Z,6.20
2023-03-31T08:51:13.094Z,5.47
2023-03-31T08:56:20.059Z,5.67
2023-03-31T09:02:13.746Z,5.83
2023-03-31T09:07:41.849Z,5.30
2023-03-31T09:13:16.278Z,5.03
2023-03-31T09:18:26.807Z,4.93
2023-03-31T09:23:39.942Z,5.20
2023-03-31T09:28:43.962Z,5.67
2023-03-31T09:33:48.618Z,4.93
2023-03-31T09:38:52.018Z,5.00
2023-03-31T09:43:55.241Z,5.07
2023-03-31T09:49:11.298Z,5.53
2023-03-31T09:54:25.834Z,5.23
2023-03-31T09:59:38.070Z,5.37
2023-03-31T10:04:47.006Z,5.27
2023-03-31T10:09:50.331Z,5.83
2023-03-31T10:15:02.455Z,5.50
2023-03-31T10:20:41.808Z,5.50
2023-03-31T10:25:47.875Z,4.60
2023-03-31T10:30:54.090Z,5.83
2023-03-31T10:36:00.758Z,4.60
2023-03-31T10:41:05.085Z,4.77
2023-03-31T10:46:13.909Z,4.37
2023-03-31T10:51:19.902Z,4.20
2023-03-31T10:56:46.526Z,4.87
2023-03-31T11:02:22.596Z,5.40
2023-03-31T11:07:35.139Z,4.30
2023-03-31T11:12:59.390Z,4.20
2023-03-31T11:18:17.820Z,4.37
2023-03-31T11:23:27.208Z,4.33
2023-03-31T11:28:58.848Z,3.60
2023-03-31T11:34:23.418Z,4.13
2023-03-31T11:39:37.433Z,4.00
2023-03-31T11:44:46.963Z,3.90
2023-03-31T11:49:59.579Z,4.27
2023-03-31T11:55:19.360Z,4.47
2023-03-31T12:00:28.640Z,5.00
2023-03-31T12:05:34.742Z,4.13
2023-03-31T12:10:44.314Z,4.03
2023-03-31T12:16:11.003Z,3.60
2023-03-31T12:21:15.017Z,3.93
2023-03-31T12:26:41.928Z,4.00
2023-03-31T12:31:46.863Z,3.42
2023-03-31T12:37:13.875Z,4.20
2023-03-31T12:42:20.432Z,4.53
2023-03-31T12:48:04.943Z,3.55
2023-03-31T12:53:20.038Z,3.40
2023-03-31T12:58:35.342Z,4.40
2023-03-31T13:03:47.630Z,3.47
2023-03-31T13:08:56.915Z,4.55
2023-03-31T13:14:06.244Z,4.20
2023-03-31T13:19:13.343Z,4.50
2023-03-31T13:24:16.949Z,4.00
2023-03-31T13:29:25.926Z,4.97
2023-03-31T13:34:45.498Z,5.17
2023-03-31T13:40:08.560Z,5.03
2023-03-31T13:45:46.218Z,4.30
2023-03-31T13:51:15.625Z,3.80
2023-03-31T13:56:41.134Z,4.03
2023-03-31T14:01:56.463Z,4.17
2023-03-31T14:07:07.992Z,4.05
2023-03-31T14:12:35.456Z,4.60
2023-03-31T14:17:41.593Z,4.18
2023-03-31T14:23:09.487Z,4.95
2023-03-31T14:28:35.788Z,5.47
2023-03-31T14:33:47.142Z,6.30
2023-03-31T14:38:50.391Z,6.57
2023-03-31T14:43:54.023Z,7.17
2023-03-31T14:48:58.099Z,6.40
2023-03-31T14:54:02.606Z,5.47
2023-03-31T14:59:08.622Z,5.33
2023-03-31T15:04:16.403Z,5.83
2023-03-31T15:09:24.510Z,4.47
2023-03-31T15:14:34.473Z,3.83
2023-03-31T15:19:37.865Z,6.13
2023-03-31T15:24:41.415Z,4.63
2023-03-31T15:29:48.344Z,3.33
2023-03-31T15:34:52.505Z,3.67
2023-03-31T15:40:01.002Z,2.53
2023-03-31T15:45:27.588Z,3.00
2023-03-31T15:50:32.541Z,4.20
2023-03-31T16:00:52.953Z,6.93
2023-03-31T16:06:03.649Z,8.47
2023-03-31T16:11:23.905Z,9.73
2023-03-31T16:16:28.948Z,13.70
2023-03-31T16:21:47.860Z,19.33
2023-03-31T16:26:51.669Z,17.67
2023-03-31T16:32:12.609Z,18.03
2023-03-31T16:37:16.322Z,11.90
2023-03-31T16:42:21.117Z,16.43
2023-03-31T16:47:35.263Z,15.27
2023-03-31T16:52:40.083Z,15.13
2023-03-31T16:57:44.266Z,18.40
2023-03-31T17:02:48.190Z,23.23
2023-03-31T17:07:51.854Z,23.80
2023-03-31T17:12:56.863Z,24.47
2023-03-31T17:18:04.701Z,30.53
2023-03-31T17:23:08.399Z,26.13
2023-03-31T17:28:16.504Z,30.47
2023-03-31T17:33:23.980Z,34.87
2023-03-31T17:38:32.256Z,30.00
2023-03-31T17:43:39.612Z,25.10
2023-03-31T17:48:45.760Z,17.70
2023-03-31T17:53:50.914Z,15.27
2023-03-31T17:58:54.583Z,14.97
2023-03-31T18:03:58.923Z,27.37
2023-03-31T18:09:04.003Z,26.33
2023-03-31T18:14:09.125Z,21.43
2023-03-31T18:19:14.715Z,22.33
2023-03-31T18:24:20.342Z,20.93
2023-03-31T18:29:24.516Z,20.80
2023-03-31T18:34:29.987Z,18.80
2023-03-31T18:39:36.995Z,20.00
2023-03-31T18:44:42.753Z,14.53
2023-03-31T18:49:49.121Z,17.83
2023-03-31T18:54:55.002Z,14.23
2023-03-31T18:59:59.918Z,14.50
2023-03-31T19:05:05.757Z,10.90
2023-03-31T19:10:11.536Z,9.60
2023-03-31T19:15:17.889Z,10.20
2023-03-31T19:20:23.369Z,10.43
2023-03-31T19:25:28.974Z,10.30
2023-03-31T19:30:34.372Z,8.27
2023-03-31T19:35:43.845Z,7.67
2023-03-31T19:40:49.283Z,7.93
2023-03-31T19:45:55.890Z,6.70
2023-03-31T19:51:08.272Z,7.57
2023-03-31T19:56:16.454Z,6.80
2023-03-31T20:01:28.369Z,9.10
2023-03-31T20:06:36.463Z,8.50
2023-03-31T20:11:46.226Z,7.97
2023-03-31T20:16:53.695Z,8.00
2023-03-31T20:21:59.058Z,7.10
2023-03-31T20:27:04.675Z,11.30
2023-03-31T20:32:09.453Z,11.13
2023-03-31T20:37:14.554Z,11.27
2023-03-31T20:42:19.897Z,9.07
2023-03-31T20:47:26.602Z,10.60
2023-03-31T20:52:30.850Z,12.20
2023-03-31T20:57:34.987Z,10.37
2023-03-31T21:02:39.237Z,10.37
2023-03-31T21:07:42.556Z,10.90
2023-03-31T21:12:46.713Z,14.23
2023-03-31T21:17:51.036Z,11.33
2023-03-31T21:22:57.878Z,9.57
2023-03-31T21:28:01.546Z,9.40
2023-03-31T21:33:05.528Z,22.23
2023-03-31T21:38:08.848Z,39.30
2023-03-31T21:43:13.107Z,43.07
2023-03-31T21:48:16.332Z,33.27
2023-03-31T21:53:19.343Z,15.77
2023-03-31T21:58:25.669Z,14.03
2023-03-31T22:03:29.352Z,12.50
2023-03-31T22:08:32.919Z,27.03
2023-03-31T22:13:37.218Z,36.30
2023-03-31T22:18:40.609Z,32.93
2023-03-31T22:23:44.087Z,23.70
2023-03-31T22:28:47.285Z,25.63
2023-03-31T22:33:50.884Z,22.53
2023-03-31T22:38:54.141Z,19.13
2023-03-31T22:43:57.332Z,17.67
2023-03-31T22:49:00.430Z,16.80
2023-03-31T22:54:03.989Z,16.17
2023-03-31T22:59:08.241Z,15.17
2023-03-31T23:04:11.496Z,13.70
2023-03-31T23:09:14.858Z,14.00
2023-03-31T23:14:18.393Z,13.77
2023-03-31T23:19:22.134Z,17.13
2023-03-31T23:24:25.835Z,17.27
2023-03-31T23:29:31.082Z,16.57
2023-03-31T23:34:34.254Z,17.03
2023-03-31T23:39:39.193Z,16.30
2023-03-31T23:44:42.430Z,15.57
2023-03-31T23:49:45.515Z,16.57
2023-03-31T23:54:48.724Z,16.83
2023-03-31T23:59:52.871Z,15.13
